createdAt,value
2022-11-09T00:01:43.069Z,1.80
2022-11-09T00:04:10.986Z,2.10
2022-11-09T00:06:38.400Z,1.80
2022-11-09T00:09:08.077Z,2.20
2022-11-09T00:11:36.978Z,1.73
2022-11-09T00:14:04.051Z,2.20
2022-11-09T00:16:30.970Z,2.08
2022-11-09T00:18:58.391Z,1.98
2022-11-09T00:21:25.851Z,1.30
2022-11-09T00:23:53.100Z,2.00
2022-11-09T00:26:20.761Z,1.98
2022-11-09T00:28:48.261Z,2.03
2022-11-09T00:31:19.814Z,2.03
2022-11-09T00:33:55.344Z,1.60
2022-11-09T00:36:23.503Z,1.65
2022-11-09T00:38:52.943Z,1.80
2022-11-09T00:41:20.381Z,1.85
2022-11-09T00:43:48.397Z,1.67
2022-11-09T00:46:16.733Z,1.83
2022-11-09T00:48:44.135Z,1.70
2022-11-09T00:51:11.425Z,1.75
2022-11-09T00:53:38.363Z,2.20
2022-11-09T00:56:12.436Z,2.00
2022-11-09T00:58:41.282Z,1.70
2022-11-09T01:01:17.410Z,1.80
2022-11-09T01:03:45.635Z,1.75
2022-11-09T01:06:33.581Z,2.10
2022-11-09T01:09:00.620Z,1.70
2022-11-09T01:11:27.334Z,1.90
2022-11-09T01:13:55.012Z,1.73
2022-11-09T01:16:23.583Z,1.48
2022-11-09T01:18:56.669Z,1.90
2022-11-09T01:21:25.990Z,1.98
2022-11-09T01:23:52.972Z,1.52
2022-11-09T01:26:19.776Z,1.77
2022-11-09T01:28:46.831Z,1.80
2022-11-09T01:31:19.249Z,1.92
2022-11-09T01:36:18.241Z,1.67
2022-11-09T01:38:45.652Z,2.05
2022-11-09T01:41:15.552Z,1.60
2022-11-09T01:43:42.771Z,1.95
2022-11-09T01:46:09.358Z,1.65
2022-11-09T01:48:41.935Z,1.92
2022-11-09T01:51:14.354Z,1.80
2022-11-09T01:56:13.488Z,1.88
2022-11-09T02:01:18.908Z,1.55
2022-11-09T02:03:52.590Z,1.90
2022-11-09T02:06:22.019Z,1.48
2022-11-09T02:08:49.519Z,1.52
2022-11-09T02:11:22.181Z,1.95
2022-11-09T02:13:53.429Z,2.03
2022-11-09T02:16:20.986Z,2.00
2022-11-09T02:18:53.943Z,1.65
2022-11-09T02:21:25.502Z,2.03
2022-11-09T02:23:53.383Z,2.17
2022-11-09T02:26:43.672Z,1.42
2022-11-09T02:29:15.186Z,1.80
2022-11-09T02:31:47.370Z,1.73
2022-11-09T02:34:18.212Z,2.13
2022-11-09T02:36:45.348Z,1.98
2022-11-09T02:39:19.373Z,1.77
2022-11-09T02:42:10.513Z,1.83
2022-11-09T02:44:43.562Z,1.88
2022-11-09T02:47:10.235Z,1.92
2022-11-09T02:49:37.291Z,2.28
2022-11-09T02:52:04.283Z,1.50
2022-11-09T02:54:31.274Z,1.70
2022-11-09T02:56:59.202Z,1.70
2022-11-09T02:59:26.931Z,2.05
2022-11-09T03:01:53.655Z,1.95
2022-11-09T03:04:21.287Z,1.70
2022-11-09T03:06:48.198Z,2.03
2022-11-09T03:09:17.873Z,1.60
2022-11-09T03:11:44.725Z,2.00
2022-11-09T03:14:13.519Z,1.85
2022-11-09T03:16:50.548Z,2.10
2022-11-09T03:19:17.987Z,1.73
2022-11-09T03:21:46.471Z,2.10
2022-11-09T03:24:13.167Z,2.20
2022-11-09T03:26:41.154Z,1.63
2022-11-09T03:29:07.893Z,1.60
2022-11-09T03:31:35.401Z,1.85
2022-11-09T03:34:05.694Z,1.90
2022-11-09T03:36:35.338Z,1.77
2022-11-09T03:39:02.216Z,1.45
2022-11-09T03:41:29.023Z,2.05
2022-11-09T03:43:55.791Z,1.90
2022-11-09T03:46:23.632Z,1.70
2022-11-09T03:48:50.286Z,1.80
2022-11-09T03:51:17.052Z,1.92
2022-11-09T03:53:43.772Z,1.42
2022-11-09T03:56:10.468Z,1.73
2022-11-09T03:58:37.096Z,1.65
2022-11-09T04:01:03.861Z,2.25
2022-11-09T04:03:30.496Z,1.73
2022-11-09T04:05:59.301Z,1.95
2022-11-09T04:08:26.118Z,1.90
2022-11-09T04:10:52.947Z,1.65
2022-11-09T04:13:19.746Z,1.60
2022-11-09T04:15:46.579Z,1.70
2022-11-09T04:18:16.226Z,1.52
2022-11-09T04:20:43.533Z,1.45
2022-11-09T04:23:12.383Z,1.50
2022-11-09T04:25:40.821Z,1.80
2022-11-09T04:28:10.938Z,1.90
2022-11-09T04:30:38.160Z,1.65
2022-11-09T04:33:05.349Z,1.70
2022-11-09T04:35:33.487Z,1.75
2022-11-09T04:38:11.474Z,1.60
2022-11-09T04:40:38.743Z,1.95
2022-11-09T04:43:07.726Z,1.45
2022-11-09T04:45:35.344Z,1.77
2022-11-09T04:48:03.850Z,1.80
2022-11-09T04:50:30.946Z,2.10
2022-11-09T04:53:10.658Z,1.48
2022-11-09T04:55:37.672Z,1.67
2022-11-09T04:58:05.005Z,1.65
2022-11-09T05:00:31.947Z,2.00
2022-11-09T05:03:05.698Z,1.45
2022-11-09T05:05:37.229Z,1.70
2022-11-09T05:08:04.979Z,1.63
2022-11-09T05:10:32.527Z,1.67
2022-11-09T05:13:05.998Z,2.08
2022-11-09T05:15:33.905Z,2.10
2022-11-09T05:18:01.977Z,1.88
2022-11-09T05:20:29.181Z,1.60
2022-11-09T05:23:16.728Z,1.50
2022-11-09T05:25:43.778Z,1.85
2022-11-09T05:28:11.266Z,1.70
2022-11-09T05:30:38.132Z,1.98
2022-11-09T05:33:05.172Z,1.52
2022-11-09T05:35:33.328Z,2.42
2022-11-09T05:38:00.017Z,1.77
2022-11-09T05:40:26.687Z,1.67
2022-11-09T05:42:53.336Z,1.65
2022-11-09T05:48:07.359Z,1.80
2022-11-09T05:50:34.315Z,2.30
2022-11-09T05:53:17.226Z,1.40
2022-11-09T05:55:44.145Z,1.95
2022-11-09T05:58:11.314Z,2.55
2022-11-09T06:00:38.170Z,2.38
2022-11-09T06:03:06.649Z,2.10
2022-11-09T06:05:34.620Z,2.70
2022-11-09T06:08:13.090Z,1.80
2022-11-09T06:10:40.743Z,2.22
2022-11-09T06:13:08.026Z,2.00
2022-11-09T06:15:34.884Z,2.10
2022-11-09T06:18:01.858Z,1.63
2022-11-09T06:20:28.765Z,2.13
2022-11-09T06:23:03.589Z,2.13
2022-11-09T06:25:32.233Z,2.13
2022-11-09T06:27:59.124Z,1.90
2022-11-09T06:30:26.404Z,1.63
2022-11-09T06:33:01.953Z,1.98
2022-11-09T06:35:29.367Z,2.10
2022-11-09T06:38:00.054Z,2.28
2022-11-09T06:40:27.261Z,1.77
2022-11-09T06:42:57.353Z,2.67
2022-11-09T06:45:24.417Z,2.13
2022-11-09T06:47:51.122Z,2.05
2022-11-09T06:50:17.891Z,2.47
2022-11-09T06:52:44.910Z,2.42
2022-11-09T06:55:11.577Z,2.05
2022-11-09T06:57:38.476Z,2.30
2022-11-09T07:00:06.398Z,2.15
2022-11-09T07:02:33.960Z,2.22
2022-11-09T07:05:00.612Z,1.92
2022-11-09T07:07:28.337Z,2.47
2022-11-09T07:09:55.841Z,1.95
2022-11-09T07:12:22.598Z,1.92
2022-11-09T07:14:49.499Z,1.88
2022-11-09T07:17:16.188Z,2.30
2022-11-09T07:19:43.073Z,2.33
2022-11-09T07:22:09.900Z,2.00
2022-11-09T07:24:36.717Z,2.13
2022-11-09T07:27:03.528Z,2.00
2022-11-09T07:29:30.396Z,2.30
2022-11-09T07:31:57.251Z,2.05
2022-11-09T07:34:24.140Z,1.90
2022-11-09T07:36:54.059Z,2.22
2022-11-09T07:39:20.743Z,2.45
2022-11-09T07:41:48.494Z,2.33
2022-11-09T07:44:18.454Z,1.95
2022-11-09T07:46:47.927Z,2.85
2022-11-09T07:49:15.916Z,2.15
2022-11-09T07:51:43.138Z,2.75
2022-11-09T07:54:10.341Z,1.85
2022-11-09T07:56:37.778Z,2.58
2022-11-09T07:59:04.878Z,2.67
2022-11-09T08:01:32.101Z,2.22
2022-11-09T08:03:59.131Z,2.45
2022-11-09T08:06:28.047Z,2.20
2022-11-09T08:08:55.724Z,2.45
2022-11-09T08:11:22.790Z,2.05
2022-11-09T08:13:49.606Z,2.42
2022-11-09T08:16:16.622Z,2.30
2022-11-09T08:18:43.363Z,2.67
2022-11-09T08:21:10.122Z,2.30
2022-11-09T08:23:36.927Z,2.70
2022-11-09T08:26:06.070Z,2.38
2022-11-09T08:28:33.712Z,2.90
2022-11-09T08:31:03.040Z,2.22
2022-11-09T08:33:31.674Z,2.22
2022-11-09T08:35:58.530Z,2.40
2022-11-09T08:38:25.429Z,2.45
2022-11-09T08:40:58.360Z,2.08
2022-11-09T08:43:25.421Z,1.90
2022-11-09T08:45:52.290Z,2.67
2022-11-09T08:48:19.156Z,2.03
2022-11-09T08:50:45.997Z,2.47
2022-11-09T08:53:12.772Z,2.80
2022-11-09T08:55:39.591Z,2.58
2022-11-09T08:58:06.302Z,2.53
2022-11-09T09:00:32.982Z,2.22
2022-11-09T09:03:04.508Z,2.40
2022-11-09T09:05:31.410Z,2.55
2022-11-09T09:07:59.795Z,2.63
2022-11-09T09:10:26.813Z,2.15
2022-11-09T09:12:53.603Z,2.40
2022-11-09T09:15:20.555Z,2.60
2022-11-09T09:17:47.675Z,2.30
2022-11-09T09:20:14.896Z,1.77
2022-11-09T09:22:41.842Z,2.63
2022-11-09T09:25:08.946Z,2.30
2022-11-09T09:27:35.969Z,2.20
2022-11-09T09:30:03.783Z,2.60
2022-11-09T09:32:30.436Z,2.83
2022-11-09T09:34:57.311Z,2.15
2022-11-09T09:37:24.170Z,2.25
2022-11-09T09:39:51.194Z,2.20
2022-11-09T09:42:31.921Z,2.72
2022-11-09T09:45:19.278Z,2.55
2022-11-09T09:48:15.286Z,2.40
2022-11-09T09:50:53.944Z,2.20
2022-11-09T09:53:29.191Z,1.90
2022-11-09T09:56:19.520Z,2.28
2022-11-09T09:58:53.555Z,2.35
2022-11-09T10:01:23.923Z,1.95
2022-11-09T10:03:51.103Z,2.10
2022-11-09T10:06:37.772Z,2.00
2022-11-09T10:09:10.570Z,2.10
2022-11-09T10:12:18.792Z,2.30
2022-11-09T10:15:22.180Z,2.08
2022-11-09T10:17:57.657Z,2.00
2022-11-09T10:20:52.807Z,2.30
2022-11-09T10:23:41.783Z,2.40
2022-11-09T10:26:27.388Z,2.35
2022-11-09T10:29:17.018Z,2.65
2022-11-09T10:31:46.680Z,2.65
2022-11-09T10:34:33.199Z,2.40
2022-11-09T10:37:18.638Z,3.40
2022-11-09T10:40:27.131Z,2.10
2022-11-09T10:43:14.463Z,2.13
2022-11-09T10:46:04.901Z,1.67
2022-11-09T10:48:51.098Z,1.88
2022-11-09T10:51:48.310Z,2.22
2022-11-09T10:54:37.919Z,2.85
2022-11-09T10:57:24.621Z,2.13
2022-11-09T11:00:19.130Z,2.15
2022-11-09T11:03:17.472Z,2.42
2022-11-09T11:06:06.575Z,1.73
2022-11-09T11:08:58.299Z,1.83
2022-11-09T11:11:43.815Z,2.28
2022-11-09T11:14:30.562Z,1.98
2022-11-09T11:17:27.739Z,2.00
2022-11-09T11:20:35.067Z,2.17
2022-11-09T11:23:25.806Z,2.05
2022-11-09T11:26:23.331Z,1.63
2022-11-09T11:29:35.449Z,1.88
2022-11-09T11:32:23.073Z,2.67
2022-11-09T11:35:36.276Z,2.20
2022-11-09T11:38:34.931Z,1.85
2022-11-09T11:41:51.435Z,2.00
2022-11-09T11:45:03.163Z,3.55
2022-11-09T11:48:26.235Z,2.38
2022-11-09T11:51:36.478Z,1.90
2022-11-09T11:54:34.223Z,1.70
2022-11-09T11:57:45.267Z,2.05
2022-11-09T12:00:35.935Z,1.60
2022-11-09T12:03:34.381Z,2.20
2022-11-09T12:06:50.369Z,1.58
2022-11-09T12:09:59.895Z,1.95
2022-11-09T12:13:05.723Z,1.60
2022-11-09T12:16:15.578Z,1.65
2022-11-09T12:19:25.515Z,2.15
2022-11-09T12:22:47.530Z,2.75
2022-11-09T12:25:36.085Z,1.70
2022-11-09T12:28:45.679Z,2.00
2022-11-09T12:31:44.853Z,2.00
2022-11-09T12:34:57.629Z,1.55
2022-11-09T12:38:01.338Z,1.77
2022-11-09T12:40:54.149Z,2.55
2022-11-09T12:44:17.510Z,2.10
2022-11-09T12:50:02.359Z,2.10
2022-11-09T12:52:52.197Z,2.22
2022-11-09T12:55:57.954Z,2.20
2022-11-09T12:58:44.118Z,1.85
2022-11-09T13:01:32.761Z,1.77
2022-11-09T13:04:20.805Z,1.75
2022-11-09T13:07:09.494Z,1.45
2022-11-09T13:09:57.830Z,1.75
2022-11-09T13:12:43.662Z,1.85
2022-11-09T13:15:37.231Z,1.77
2022-11-09T13:18:35.512Z,1.95
2022-11-09T13:21:21.547Z,1.75
2022-11-09T13:24:31.763Z,2.10
2022-11-09T13:27:38.700Z,1.67
2022-11-09T13:30:23.968Z,1.77
2022-11-09T13:33:15.477Z,2.13
2022-11-09T13:36:07.104Z,1.77
2022-11-09T13:39:28.806Z,2.05
2022-11-09T13:42:30.230Z,1.40
2022-11-09T13:45:26.787Z,1.70
2022-11-09T13:48:30.028Z,1.30
2022-11-09T13:54:28.542Z,1.95
2022-11-09T13:57:14.053Z,1.67
2022-11-09T14:00:00.389Z,2.53
2022-11-09T14:03:21.871Z,1.80
2022-11-09T14:06:12.493Z,2.00
2022-11-09T14:08:59.354Z,2.58
2022-11-09T14:11:54.403Z,1.50
2022-11-09T14:14:57.644Z,1.58
2022-11-09T14:18:01.170Z,1.63
2022-11-09T14:20:58.187Z,1.27
2022-11-09T14:23:43.883Z,1.52
2022-11-09T14:26:29.190Z,1.50
2022-11-09T14:29:23.168Z,1.48
2022-11-09T14:32:30.125Z,1.73
2022-11-09T14:35:25.131Z,1.52
2022-11-09T14:38:26.021Z,1.45
2022-11-09T14:41:26.159Z,0.93
2022-11-09T14:44:25.215Z,1.20
2022-11-09T14:47:19.899Z,1.48
2022-11-09T14:50:11.411Z,1.70
2022-11-09T14:52:58.123Z,1.70
2022-11-09T14:55:43.930Z,1.52
2022-11-09T14:58:32.960Z,1.85
2022-11-09T15:01:18.302Z,1.60
2022-11-09T15:04:20.035Z,1.40
2022-11-09T15:07:05.420Z,1.75
2022-11-09T15:10:01.270Z,1.42
2022-11-09T15:12:52.224Z,0.95
2022-11-09T15:15:38.891Z,1.83
2022-11-09T15:18:33.545Z,1.30
2022-11-09T15:21:25.912Z,1.50
2022-11-09T15:24:11.462Z,1.52
2022-11-09T15:26:57.656Z,1.88
2022-11-09T15:29:44.039Z,1.42
2022-11-09T15:32:35.132Z,1.27
2022-11-09T15:35:20.786Z,2.00
2022-11-09T15:38:06.475Z,1.45
2022-11-09T15:40:51.700Z,1.10
2022-11-09T15:43:37.767Z,1.20
2022-11-09T15:46:27.090Z,1.48
2022-11-09T15:49:20.330Z,1.55
2022-11-09T15:52:05.995Z,1.25
2022-11-09T15:54:51.404Z,1.20
2022-11-09T15:57:37.004Z,1.40
2022-11-09T16:00:23.385Z,1.60
2022-11-09T16:03:10.087Z,1.50
2022-11-09T16:05:55.819Z,1.60
2022-11-09T16:08:41.260Z,2.30
2022-11-09T16:11:26.542Z,1.50
2022-11-09T16:14:12.337Z,1.63
2022-11-09T16:16:57.632Z,1.33
2022-11-09T16:19:43.250Z,1.10
2022-11-09T16:22:33.118Z,1.48
2022-11-09T16:25:18.527Z,1.30
2022-11-09T16:28:04.026Z,1.30
2022-11-09T16:30:49.514Z,1.67
2022-11-09T16:33:35.759Z,1.73
2022-11-09T16:36:24.484Z,1.45
2022-11-09T16:39:16.845Z,1.50
2022-11-09T16:42:08.103Z,1.77
2022-11-09T16:44:56.647Z,2.05
2022-11-09T16:47:49.407Z,1.33
2022-11-09T16:50:34.774Z,1.30
2022-11-09T16:53:26.470Z,2.17
2022-11-09T16:56:12.717Z,2.47
2022-11-09T16:58:57.913Z,2.67
2022-11-09T17:01:51.386Z,2.30
2022-11-09T17:04:36.732Z,2.03
2022-11-09T17:07:22.207Z,2.20
2022-11-09T17:10:08.210Z,2.33
2022-11-09T17:12:53.348Z,1.90
2022-11-09T17:15:43.807Z,1.75
2022-11-09T17:18:29.088Z,1.90
2022-11-09T17:21:15.025Z,1.85
2022-11-09T17:24:00.454Z,1.80
2022-11-09T17:26:46.101Z,1.77
2022-11-09T17:29:31.496Z,2.08
2022-11-09T17:32:17.545Z,1.67
2022-11-09T17:35:02.864Z,3.15
2022-11-09T17:37:48.604Z,2.88
2022-11-09T17:40:33.982Z,2.13
2022-11-09T17:43:20.038Z,1.73
2022-11-09T17:46:07.950Z,2.30
2022-11-09T17:48:53.686Z,1.98
2022-11-09T17:51:40.018Z,1.70
2022-11-09T17:54:25.228Z,1.38
2022-11-09T17:57:10.919Z,1.80
2022-11-09T17:59:56.579Z,2.20
2022-11-09T18:02:41.925Z,3.40
2022-11-09T18:05:27.710Z,3.45
2022-11-09T18:08:14.362Z,4.70
2022-11-09T18:10:59.929Z,3.20
2022-11-09T18:13:48.086Z,3.20
2022-11-09T18:16:33.672Z,3.20
2022-11-09T18:19:19.314Z,2.70
2022-11-09T18:22:07.572Z,3.05
2022-11-09T18:24:56.946Z,3.13
2022-11-09T18:27:42.708Z,2.33
2022-11-09T18:30:28.107Z,2.70
2022-11-09T18:33:13.556Z,2.80
2022-11-09T18:36:01.200Z,3.60
2022-11-09T18:38:47.280Z,3.30
2022-11-09T18:41:33.178Z,3.10
2022-11-09T18:44:18.874Z,2.72
2022-11-09T18:47:05.787Z,2.55
2022-11-09T18:49:52.519Z,2.03
2022-11-09T18:52:38.267Z,1.70
2022-11-09T18:55:23.969Z,2.72
2022-11-09T18:58:09.243Z,2.45
2022-11-09T19:01:00.045Z,2.10
2022-11-09T19:03:46.232Z,2.40
2022-11-09T19:06:32.139Z,2.10
2022-11-09T19:09:30.201Z,2.50
2022-11-09T19:12:15.785Z,2.47
2022-11-09T19:15:01.621Z,2.53
2022-11-09T19:17:46.787Z,2.22
2022-11-09T19:20:32.858Z,3.00
2022-11-09T19:23:18.720Z,3.33
2022-11-09T19:26:03.867Z,2.47
2022-11-09T19:28:49.628Z,3.20
2022-11-09T19:31:35.255Z,2.92
2022-11-09T19:34:22.058Z,2.95
2022-11-09T19:37:08.486Z,3.30
2022-11-09T19:39:56.422Z,2.30
2022-11-09T19:42:41.833Z,3.50
2022-11-09T19:45:27.559Z,2.65
2022-11-09T19:48:12.740Z,3.10
2022-11-09T19:50:58.431Z,2.88
2022-11-09T19:53:51.599Z,2.65
2022-11-09T19:56:37.166Z,2.40
2022-11-09T19:59:23.815Z,2.50
2022-11-09T20:02:10.274Z,2.97
2022-11-09T20:04:55.515Z,2.67
2022-11-09T20:07:40.909Z,2.80
2022-11-09T20:10:26.334Z,3.28
2022-11-09T20:13:13.016Z,2.80
2022-11-09T20:16:06.590Z,3.25
2022-11-09T20:18:52.150Z,3.30
2022-11-09T20:21:40.056Z,3.45
2022-11-09T20:24:25.392Z,3.20
2022-11-09T20:27:10.967Z,4.40
2022-11-09T20:29:56.321Z,5.35
2022-11-09T20:32:41.587Z,4.47
2022-11-09T20:35:27.271Z,3.88
2022-11-09T20:38:12.816Z,5.50
2022-11-09T20:41:01.232Z,3.90
2022-11-09T20:43:46.884Z,4.32
2022-11-09T20:46:36.250Z,4.30
2022-11-09T20:49:22.346Z,3.85
2022-11-09T20:52:08.062Z,3.70
2022-11-09T20:54:53.502Z,4.13
2022-11-09T20:57:38.942Z,4.30
2022-11-09T21:00:24.627Z,4.25
2022-11-09T21:03:10.316Z,5.18
2022-11-09T21:06:00.390Z,3.42
2022-11-09T21:08:50.095Z,3.10
2022-11-09T21:11:36.424Z,3.50
2022-11-09T21:14:21.862Z,3.53
2022-11-09T21:17:07.730Z,3.40
2022-11-09T21:19:53.191Z,3.83
2022-11-09T21:22:56.808Z,3.10
2022-11-09T21:26:02.740Z,3.55
2022-11-09T21:29:06.778Z,3.47
2022-11-09T21:31:52.147Z,4.20
2022-11-09T21:34:38.185Z,3.92
2022-11-09T21:37:23.794Z,4.18
2022-11-09T21:40:09.786Z,3.42
2022-11-09T21:42:55.713Z,3.83
2022-11-09T21:45:42.025Z,4.25
2022-11-09T21:48:27.799Z,3.60
2022-11-09T21:51:13.297Z,3.65
2022-11-09T21:53:59.027Z,3.97
2022-11-09T21:56:44.392Z,4.72
2022-11-09T21:59:29.739Z,3.90
2022-11-09T22:02:15.491Z,3.47
2022-11-09T22:05:00.775Z,3.55
2022-11-09T22:07:46.354Z,3.92
2022-11-09T22:10:32.052Z,3.67
2022-11-09T22:13:36.390Z,3.22
2022-11-09T22:16:23.199Z,3.80
2022-11-09T22:19:27.273Z,3.40
2022-11-09T22:22:13.578Z,3.30
2022-11-09T22:24:58.637Z,3.40
2022-11-09T22:27:44.330Z,3.20
2022-11-09T22:30:29.585Z,3.95
2022-11-09T22:33:15.864Z,3.67
2022-11-09T22:36:03.664Z,3.78
2022-11-09T22:38:50.730Z,4.20
2022-11-09T22:41:36.119Z,4.20
2022-11-09T22:44:21.668Z,3.30
2022-11-09T22:47:07.217Z,3.30
2022-11-09T22:49:52.786Z,3.35
2022-11-09T22:52:38.227Z,4.80
2022-11-09T22:55:24.433Z,3.80
2022-11-09T22:58:11.047Z,3.10
2022-11-09T23:01:04.691Z,3.30
2022-11-09T23:03:50.225Z,4.55
2022-11-09T23:06:35.998Z,3.63
2022-11-09T23:09:21.243Z,4.20
2022-11-09T23:12:06.674Z,3.78
2022-11-09T23:15:04.434Z,3.95
2022-11-09T23:18:10.848Z,3.95
2022-11-09T23:20:59.468Z,3.28
2022-11-09T23:23:45.278Z,3.25
2022-11-09T23:26:32.657Z,4.05
2022-11-09T23:29:17.705Z,3.63
2022-11-09T23:32:03.466Z,3.80
2022-11-09T23:34:48.801Z,3.10
2022-11-09T23:37:34.471Z,3.28
2022-11-09T23:40:20.210Z,3.92
2022-11-09T23:43:08.554Z,3.50
2022-11-09T23:45:54.242Z,4.07
2022-11-09T23:48:41.218Z,2.85
2022-11-09T23:51:26.664Z,3.70
2022-11-09T23:54:12.115Z,3.55
2022-11-09T23:56:57.771Z,4.10
2022-11-09T23:59:43.270Z,3.55
